North Platte Regional Airport Lee Bird Field
KLBF : now visible

Aeroporto :











RITROVATECI SU...

 
LOGIN :

Iscrizione | Disclaimer

   EN    FR    IT 

 









Sommario :    VFR   VFR Marginale   IFR   IFR Intensivo   IFR Molto Intensivo
Visibilità : 
Base nubi : 
>= 8 km
>= 3000ft
5 / 8 km
1000 / 3000 ft
1500m / 5 km
500 / 1000 ft
800 / 1500m
200 / 500 ft
< 800m
< 200 ft
Simboli :   Temporali  Nebbia  Neve Forte  Precipitazioni Forti  Vento > 20 kt







- Altitudine del aeroporto : 2777 ft
- Codice IATA : LBF


KLBF - North Platte Regional Lee Bird Field

ULTIMO METAR :
  • 201653Z AUTO 08008KT 10SM CLR 32/19 A3002 RMK AO2 SLP134 T03170194

METARs OBSOLETI :
  • 201553Z AUTO 08003KT 10SM CLR 31/21 A3001 RMK AO2 SLP130 T03060206
  • 201453Z AUTO 08003KT 10SM CLR 27/22 A3000 RMK AO2 SLP129 T02720217 53009
  • 201353Z AUTO 00000KT 10SM CLR 23/22 A2999 RMK AO2 SLP128 T02330217

TAF KLBF
Valido dal 20 a 12 ore il 21 a 12 ore UTC


201120Z 2012/2112 00000KT 5SM BR BKN180
FM201400 00000KT P6SM SCT180
FM210200 09008KT P6SM VCSH BKN200
FM210700 09008KT 5SM BR VCTS BKN100CB
Nessun NOTAM noto per questo aeroporto.



MetMap, La meteo Aeronautica in un colpo d'occhio ! - Copyright ORBIFLY Dicembre 2007 - Disclaimer

ORBIFLY MET'MAP TEAM :

Programmazione e sviluppo : Alexandra Zaïnal
Concezione e sviluppo : Baudouin d'Aumeries
Co-Programmazione e sviluppo : Marc-Olivier Méhu
Supporto tecnico e logistico : Manuel Goepfert
Aiuto per la traduzione : Arnaldo La Scala

Contatto : metmap@orbifly.com




FONTI E CREDITI :

   NOAA       Earth
Advisory